Weather reports worldwide

Advertisment
Monte Scuro, Italy (16344): temperature & dewpoint: 11.10.2018 08:00:00 - 17.10.2018 08:00:00 (CEST)Monte Scuro, Italy (16344): wind speed: 11.10.2018 08:00:00 - 17.10.2018 08:00:00 (CEST)Monte Scuro, Italy (16344): wind direction: 11.10.2018 08:00:00 - 17.10.2018 08:00:00 (CEST)Monte Scuro, Italy (16344): visibility: 11.10.2018 08:00:00 - 17.10.2018 08:00:00 (CEST)Monte Scuro, Italy (16344): sunshine duration: 11.10.2018 08:00:00 - 17.10.2018 08:00:00 (CEST)
Date & Time tt [°C] td [°C] ff [km/h] ff [kn] dd vv [km] sd [min]
17.10.2018 08:00:00 10,6 10,3 11 6 SE 10 0
17.10.2018 07:00:00 10,4 10,1 5 3 ENE 8 -
17.10.2018 06:00:00 10,4 10,1 5 3 ENE 8 -
17.10.2018 05:00:00 10,4 10,1 8 4 ENE - -
17.10.2018 04:00:00 10,4 10,1 8 4 ENE - -
17.10.2018 03:00:00 10,8 8,4 8 4 ENE 10 -
17.10.2018 02:00:00 11,0 8,1 8 4 ENE 10 -
17.10.2018 01:00:00 11,0 9,1 8 4 ENE 10 -
17.10.2018 00:00:00 11,0 8,7 9 5 ENE 10 -
16.10.2018 23:00:00 11,0 8,9 0 0 N 10 -
16.10.2018 22:00:00 11,0 9,1 0 0 N 10 -
16.10.2018 21:00:00 11,0 10,4 8 4 E 10 -
16.10.2018 20:00:00 11,0 10,4 16 9 ENE 10 -
16.10.2018 19:00:00 11,4 10,8 5 3 W - 0
16.10.2018 18:00:00 12,0 11,4 8 4 WSW - 0
16.10.2018 17:00:00 12,2 11,6 8 4 WSW - 0
16.10.2018 16:00:00 12,6 12,3 5 3 WSW - 0
16.10.2018 15:00:00 13,4 12,8 9 5 W - 0
16.10.2018 14:00:00 14,2 12,9 11 6 W - 0
16.10.2018 13:00:00 14,2 12,2 11 6 W 10 36
16.10.2018 12:00:00 14,0 10,0 8 4 WSW 15 60
16.10.2018 11:00:00 14,0 8,6 9 5 ESE 25 60
16.10.2018 10:00:00 12,6 8,7 18 10 ENE 20 60
16.10.2018 09:00:00 10,2 9,9 18 10 ENE 10 60
16.10.2018 08:00:00 10,0 9,5 16 9 ENE 10 60
16.10.2018 07:00:00 9,8 7,7 18 10 ENE 10 -
16.10.2018 06:00:00 9,8 8,1 18 10 ENE 10 -
16.10.2018 05:00:00 9,6 8,0 22 12 ENE 10 -
16.10.2018 04:00:00 9,6 8,2 16 9 ENE 10 -
16.10.2018 03:00:00 9,8 9,8 11 6 ENE 10 -
16.10.2018 02:00:00 9,8 9,8 5 3 ENE 10 -
16.10.2018 01:00:00 10,0 9,4 8 4 ENE 10 -
16.10.2018 00:00:00 10,0 9,2 9 5 ENE 10 -
15.10.2018 23:00:00 10,4 8,3 8 4 ENE 10 -
15.10.2018 22:00:00 10,0 8,6 18 10 NE 10 -
15.10.2018 21:00:00 10,0 8,9 15 8 NE 10 -
15.10.2018 20:00:00 10,8 10,8 22 12 NNE - -
15.10.2018 19:00:00 11,0 11,0 21 11 NE - -
15.10.2018 18:00:00 11,0 11,0 24 13 NE - 0
15.10.2018 17:00:00 11,0 11,0 24 13 NE - 0
15.10.2018 16:00:00 11,6 11,6 22 12 ENE - 0
15.10.2018 15:00:00 12,0 12,0 22 12 NE - 0
15.10.2018 14:00:00 11,0 11,0 22 12 NE - 0
15.10.2018 13:00:00 11,0 11,0 28 15 NE - 0
15.10.2018 12:00:00 11,2 11,2 28 15 NE - 0
15.10.2018 11:00:00 11,4 11,4 28 15 NNE - 0
15.10.2018 10:00:00 10,6 10,0 31 17 NNE - 24
15.10.2018 09:00:00 10,4 8,8 29 16 NE 10 30
15.10.2018 08:00:00 9,0 8,6 37 20 NE 10 0
15.10.2018 07:00:00 9,0 8,5 24 13 NNE 10 -
15.10.2018 06:00:00 8,6 8,0 22 12 NE - -
15.10.2018 05:00:00 8,6 8,6 24 13 NE - -
15.10.2018 04:00:00 8,6 8,6 24 13 NE - -
15.10.2018 03:00:00 8,6 8,6 28 15 NNE - -
15.10.2018 02:00:00 8,4 8,4 35 19 NE - -
15.10.2018 01:00:00 8,4 8,4 29 16 NE - -
15.10.2018 00:00:00 8,2 8,2 34 18 NE - -
14.10.2018 23:00:00 8,2 8,2 37 20 ENE - -
14.10.2018 22:00:00 8,0 8,0 35 19 ENE - -
14.10.2018 21:00:00 7,6 7,6 37 20 NE - -
14.10.2018 20:00:00 7,8 7,8 37 20 ENE - -
14.10.2018 19:00:00 7,8 7,8 34 18 ENE - -
14.10.2018 18:00:00 7,0 7,0 34 18 NE - 0
14.10.2018 17:00:00 7,0 7,0 29 16 NE - 0
14.10.2018 16:00:00 8,2 7,4 28 15 NE 10 -
14.10.2018 15:00:00 8,4 7,7 31 17 NE 10 0
14.10.2018 14:00:00 9,0 8,2 31 17 NE 10 18
14.10.2018 13:00:00 9,0 8,2 29 16 NE 10 0
14.10.2018 12:00:00 9,0 8,2 29 16 NE 10 0
14.10.2018 11:00:00 8,4 7,3 29 16 NE 10 0
14.10.2018 10:00:00 8,0 7,2 31 17 N 15 0
14.10.2018 09:00:00 7,8 5,8 28 15 NNE 20 30
14.10.2018 08:00:00 6,8 6,1 29 16 NNE 20 0
14.10.2018 07:00:00 7,2 4,0 28 15 NNE 10 -
14.10.2018 06:00:00 7,0 5,2 26 14 NNE 10 -
14.10.2018 05:00:00 7,0 6,2 28 15 NE 10 -
14.10.2018 04:00:00 7,0 6,2 26 14 NNE 10 -
14.10.2018 03:00:00 7,0 6,2 31 17 NNE 10 -
14.10.2018 02:00:00 7,0 6,3 28 15 NNE 10 -
14.10.2018 01:00:00 7,2 6,5 31 17 ENE 10 -
14.10.2018 00:00:00 7,0 6,2 29 16 NE 10 -
13.10.2018 23:00:00 7,2 6,5 22 12 NNE 10 -
13.10.2018 22:00:00 7,2 6,5 24 13 NNE 10 -
13.10.2018 21:00:00 7,0 6,2 29 16 NNE 10 -
13.10.2018 20:00:00 7,2 6,8 28 15 NNE 10 -
13.10.2018 19:00:00 8,0 7,4 24 13 NNE 15 -
13.10.2018 18:00:00 9,4 7,7 24 13 NNE 20 36
13.10.2018 17:00:00 10,8 5,5 22 12 NNE 20 60
13.10.2018 16:00:00 11,2 4,7 29 16 NNE 20 60
13.10.2018 15:00:00 11,4 3,9 28 15 NNE 20 60
13.10.2018 14:00:00 12,0 5,0 28 15 NNE 15 60
13.10.2018 13:00:00 12,0 5,0 22 12 NE 15 60
13.10.2018 12:00:00 11,0 4,9 28 15 NE 15 60
13.10.2018 11:00:00 10,0 4,2 26 14 NE 15 60
13.10.2018 10:00:00 10,0 4,2 24 13 NE 20 60
13.10.2018 09:00:00 9,0 2,3 34 18 ENE 20 60
13.10.2018 08:00:00 7,8 1,6 37 20 ENE 20 30
13.10.2018 07:00:00 7,6 1,9 34 18 ENE 15 -
13.10.2018 06:00:00 7,4 0,6 34 18 ENE 10 -
13.10.2018 05:00:00 7,2 2,1 34 18 ENE 10 -
13.10.2018 04:00:00 7,2 2,1 34 18 ENE 10 -
13.10.2018 03:00:00 7,0 6,2 37 20 ENE 10 -
13.10.2018 02:00:00 7,0 6,3 37 20 ENE 10 -
13.10.2018 01:00:00 7,2 5,8 34 18 ENE 10 -
13.10.2018 00:00:00 7,2 6,3 34 18 ENE 10 -
12.10.2018 23:00:00 7,2 6,5 37 20 ENE 10 -
12.10.2018 22:00:00 7,4 6,7 34 18 E 10 -
12.10.2018 21:00:00 7,4 4,4 34 18 E 10 -
12.10.2018 20:00:00 7,2 4,7 28 15 E 10 -
12.10.2018 19:00:00 8,0 7,4 24 13 E 10 24
12.10.2018 18:00:00 9,0 8,4 18 10 E 15 30
12.10.2018 17:00:00 10,2 8,8 18 10 ENE 15 60
12.10.2018 16:00:00 10,2 7,8 18 10 E 15 48
12.10.2018 15:00:00 10,0 9,2 18 10 E 15 0
12.10.2018 14:00:00 10,2 9,6 11 6 E - 0
12.10.2018 13:00:00 11,0 9,4 11 6 ENE 10 0
12.10.2018 12:00:00 11,0 9,4 5 3 ENE 10 0
12.10.2018 11:00:00 12,0 8,8 11 6 ENE 10 0
12.10.2018 10:00:00 10,4 10,1 8 4 ENE - 0
12.10.2018 09:00:00 10,4 8,8 5 3 ENE 10 0
12.10.2018 08:00:00 10,8 8,0 8 4 NE 10 0
12.10.2018 07:00:00 11,0 7,1 9 5 NNE 10 -
12.10.2018 06:00:00 11,0 7,3 11 6 NNE 10 -
12.10.2018 05:00:00 10,4 9,2 0 0 N 10 -
12.10.2018 04:00:00 10,4 9,3 0 0 N 10 -
12.10.2018 03:00:00 10,6 8,2 4 2 ENE 10 -
12.10.2018 02:00:00 10,6 7,7 5 3 ENE 10 -
12.10.2018 01:00:00 10,6 8,4 5 3 ENE 10 -
12.10.2018 00:00:00 10,8 8,4 5 3 E 10 -
11.10.2018 23:00:00 10,8 8,4 5 3 E 10 -
11.10.2018 22:00:00 10,8 7,1 5 3 WNW 10 -
11.10.2018 21:00:00 10,8 10,4 4 2 E 10 -
11.10.2018 20:00:00 10,6 10,3 4 2 WNW - -
11.10.2018 19:00:00 10,8 10,5 4 2 WNW - 0
11.10.2018 18:00:00 11,4 11,1 4 2 W - 0
11.10.2018 17:00:00 12,0 11,4 13 7 W 10 0
11.10.2018 16:00:00 13,0 9,8 8 4 WNW 15 24
11.10.2018 15:00:00 13,2 10,4 4 2 WNW 15 18
11.10.2018 14:00:00 13,2 10,4 11 6 WNW 20 12
11.10.2018 13:00:00 12,6 9,2 15 8 WSW 20 60
11.10.2018 12:00:00 13,4 9,5 5 3 WNW 20 60
11.10.2018 11:00:00 12,6 6,6 9 5 E 20 60
11.10.2018 10:00:00 12,4 4,4 15 8 E 20 60
11.10.2018 09:00:00 11,2 4,7 8 4 W 20 60
11.10.2018 08:00:00 10,0 3,3 15 8 E 20 60

tt = temperature
td = dewpoint
ff = wind speed
dd = wind direction
vv = visibility
sd = sunshine duration

Next stations